Time;durP1;ratioP1;P1;durP2;ratioP2;P2;SDS_P1;SDS_P2;PMS_P1;PMS_P2;Temp;Humidity;BMP_temperature;BMP_pressure;BME280_temperature;BME280_humidity;BME280_pressure;Samples;Min_cycle;Max_cycle;Signal;HPM_P1;HPM_P2
2022/08/29 00:00:34;;;;;;;8.30;3.80;;;;;;;15.29;72.07;102113.41;5095005;28;20024;-57
2022/08/29 00:03:00;;;;;;;8.30;3.65;;;;;;;15.30;72.11;102115.88;5100256;28;20043;-58
2022/08/29 00:05:28;;;;;;;7.80;3.83;;;;;;;15.22;72.69;102118.53;5100624;28;20038;-58
2022/08/29 00:07:54;;;;;;;8.52;4.60;;;;;;;15.22;72.50;102115.03;5099275;28;20500;-57
2022/08/29 00:10:20;;;;;;;9.85;4.70;;;;;;;15.11;73.15;102117.00;5098291;28;20028;-56
2022/08/29 00:12:46;;;;;;;7.25;4.50;;;;;;;15.12;73.07;102118.69;5104991;28;20474;-56
2022/08/29 00:15:13;;;;;;;12.65;5.22;;;;;;;15.11;73.12;102118.81;5096463;28;20109;-58
2022/08/29 00:17:38;;;;;;;15.57;5.53;;;;;;;14.98;73.98;102122.78;5100369;28;20024;-56
2022/08/29 00:20:06;;;;;;;10.43;5.22;;;;;;;15.02;73.83;102123.28;5097329;28;20074;-58
2022/08/29 00:22:31;;;;;;;11.80;5.50;;;;;;;14.98;74.19;102116.59;5103445;28;20047;-58
2022/08/29 00:25:01;;;;;;;12.85;6.10;;;;;;;14.98;73.92;102119.25;5095349;28;20467;-59
2022/08/29 00:27:26;;;;;;;13.13;6.30;;;;;;;14.98;74.02;102119.25;5101115;28;20039;-56
2022/08/29 00:29:52;;;;;;;14.25;6.40;;;;;;;14.83;74.69;102114.53;5103333;28;20984;-59
2022/08/29 00:32:17;;;;;;;14.80;6.68;;;;;;;14.84;74.65;102110.84;5103675;28;20614;-56
2022/08/29 00:34:42;;;;;;;17.48;6.53;;;;;;;14.82;74.88;102106.66;5099911;28;20042;-56
2022/08/29 00:37:08;;;;;;;14.20;6.70;;;;;;;14.85;74.75;102117.84;5097613;28;20103;-56
2022/08/29 00:39:33;;;;;;;12.77;6.60;;;;;;;14.78;75.46;102122.16;5083647;28;20080;-57
2022/08/29 00:41:58;;;;;;;15.50;7.25;;;;;;;14.79;74.88;102123.84;5098669;28;20051;-57
2022/08/29 00:44:24;;;;;;;14.73;7.18;;;;;;;14.88;75.10;102125.56;5099036;28;20028;-56
2022/08/29 00:46:52;;;;;;;14.13;7.00;;;;;;;14.73;75.23;102116.44;5101021;28;20598;-56
2022/08/29 00:49:44;;;;;;;16.23;7.65;;;;;;;14.59;75.69;102129.38;5102461;28;20048;-58
2022/08/29 00:52:12;;;;;;;13.40;7.30;;;;;;;14.48;75.76;102122.47;5101619;28;20559;-57
2022/08/29 00:54:40;;;;;;;15.88;7.75;;;;;;;14.39;76.33;102126.91;5091372;28;20067;-58
2022/08/29 00:57:05;;;;;;;17.02;8.18;;;;;;;14.42;75.96;102116.91;5103428;28;20417;-56
2022/08/29 00:59:35;;;;;;;13.73;7.70;;;;;;;14.50;75.63;102115.13;5100309;28;20104;-57
2022/08/29 01:02:03;;;;;;;16.48;7.65;;;;;;;14.54;75.70;102118.31;5102785;28;20111;-57
2022/08/29 01:04:29;;;;;;;15.30;7.60;;;;;;;14.55;75.52;102127.16;5099975;28;20471;-57
2022/08/29 01:06:55;;;;;;;14.02;7.97;;;;;;;14.55;75.76;102114.66;5093707;28;20066;-57
2022/08/29 01:09:22;;;;;;;14.55;8.02;;;;;;;14.49;75.88;102123.28;5101925;28;20040;-56
2022/08/29 01:14:33;;;;;;;19.75;8.43;;;;;;;14.52;76.20;102134.47;5100319;28;20522;-57
2022/08/29 01:16:59;;;;;;;17.40;8.82;;;;;;;14.25;76.89;102138.09;5096052;28;20381;-56
2022/08/29 01:19:50;;;;;;;12.40;7.70;;;;;;;14.23;77.00;102134.75;5100852;28;20035;-58
2022/08/29 01:22:37;;;;;;;14.73;7.47;;;;;;;14.23;76.90;102132.09;5100854;28;20042;-56
2022/08/29 01:25:11;;;;;;;17.27;7.95;;;;;;;14.20;76.53;102135.91;5093577;28;20047;-57
2022/08/29 01:27:40;;;;;;;16.75;7.45;;;;;;;14.06;76.84;102128.47;5099837;28;20853;-57
2022/08/29 01:30:07;;;;;;;13.13;7.38;;;;;;;14.02;76.80;102133.25;5096215;28;20035;-57
2022/08/29 01:32:32;;;;;;;16.48;7.75;;;;;;;13.91;77.27;102125.47;5101683;28;20464;-57
2022/08/29 01:34:58;;;;;;;18.10;8.10;;;;;;;13.82;77.57;102128.06;5101085;28;20023;-59
2022/08/29 01:37:28;;;;;;;14.68;8.15;;;;;;;13.59;78.89;102123.16;5103819;28;20043;-57
2022/08/29 01:39:53;;;;;;;14.32;8.38;;;;;;;13.72;78.34;102116.63;5101804;28;20039;-57
2022/08/29 01:42:21;;;;;;;16.42;8.38;;;;;;;13.65;78.40;102110.22;5093553;28;20036;-56
2022/08/29 01:44:55;;;;;;;17.58;8.75;;;;;;;13.62;78.81;102115.84;5102105;28;20048;-58
2022/08/29 01:47:23;;;;;;;16.83;8.50;;;;;;;13.76;78.11;102115.31;5096654;28;20036;-56
2022/08/29 01:49:49;;;;;;;19.17;9.90;;;;;;;13.78;78.39;102121.38;5107136;28;20083;-57
2022/08/29 01:52:14;;;;;;;22.85;10.75;;;;;;;13.80;79.12;102124.72;5105936;28;20496;-56
2022/08/29 01:54:42;;;;;;;15.70;8.20;;;;;;;13.74;78.86;102119.97;5104254;28;20027;-56
2022/08/29 01:57:09;;;;;;;14.63;8.07;;;;;;;13.47;79.87;102113.69;5096161;28;20051;-57
2022/08/29 01:59:35;;;;;;;15.50;8.95;;;;;;;13.47;79.72;102118.19;5106889;28;20035;-57
2022/08/29 02:02:08;;;;;;;16.33;8.70;;;;;;;13.48;80.30;102120.72;5102704;28;20040;-57
2022/08/29 02:04:34;;;;;;;18.67;9.90;;;;;;;13.40;80.49;102123.25;5105571;28;20035;-58
2022/08/29 02:06:59;;;;;;;15.40;9.20;;;;;;;13.58;79.80;102126.81;5102968;28;20500;-58
2022/08/29 02:09:26;;;;;;;20.88;9.85;;;;;;;13.58;79.78;102118.00;5105339;28;20024;-56
2022/08/29 02:11:53;;;;;;;20.05;10.50;;;;;;;13.67;79.29;102121.59;5107240;28;20064;-58
2022/08/29 02:14:19;;;;;;;22.58;10.85;;;;;;;13.56;80.69;102120.78;5100877;28;21825;-56
2022/08/29 02:16:45;;;;;;;17.85;10.88;;;;;;;13.49;80.99;102117.06;5106370;28;20055;-57
2022/08/29 02:19:10;;;;;;;20.10;11.13;;;;;;;13.45;81.35;102120.97;5106105;28;20035;-58
2022/08/29 02:21:35;;;;;;;17.20;8.93;;;;;;;13.34;80.44;102123.84;5106392;28;20038;-56
2022/08/29 02:24:03;;;;;;;16.40;8.32;;;;;;;13.32;80.68;102132.81;5103978;28;20051;-57
2022/08/29 02:26:28;;;;;;;13.02;7.45;;;;;;;13.45;79.98;102131.63;5104427;28;20023;-57
2022/08/29 02:28:54;;;;;;;14.10;7.40;;;;;;;13.41;79.49;102128.44;5106767;28;20539;-57
2022/08/29 02:31:21;;;;;;;12.80;7.18;;;;;;;13.42;79.19;102137.28;5105888;28;20529;-57
2022/08/29 02:33:47;;;;;;;17.90;9.65;;;;;;;13.11;81.11;102142.84;5101618;28;20080;-56
2022/08/29 02:36:12;;;;;;;17.67;9.10;;;;;;;13.16;80.70;102136.13;5106787;28;20487;-57
2022/08/29 02:38:38;;;;;;;18.35;9.90;;;;;;;12.89;81.66;102136.91;5081713;28;20050;-58
2022/08/29 02:41:05;;;;;;;17.63;9.65;;;;;;;12.93;81.81;102140.94;5098100;28;20063;-57
2022/08/29 02:43:31;;;;;;;17.35;10.23;;;;;;;12.80;82.44;102145.75;5101669;28;20093;-57
2022/08/29 02:45:56;;;;;;;18.98;9.65;;;;;;;12.86;82.44;102145.19;5099891;28;20031;-57
2022/08/29 02:48:22;;;;;;;19.85;9.38;;;;;;;12.90;81.71;102139.44;5104717;28;20552;-57
2022/08/29 02:50:50;;;;;;;17.23;9.75;;;;;;;12.83;81.56;102142.81;5105350;28;20050;-57
2022/08/29 02:53:18;;;;;;;17.98;9.02;;;;;;;12.99;81.31;102145.72;5107040;28;20055;-59
2022/08/29 02:55:44;;;;;;;22.02;9.23;;;;;;;13.01;81.15;102142.91;5098143;28;20040;-57
2022/08/29 02:58:09;;;;;;;17.15;9.10;;;;;;;13.02;80.70;102148.09;5101235;27;20102;-57
2022/08/29 03:00:35;;;;;;;16.42;8.88;;;;;;;13.01;80.59;102143.75;5101662;28;20566;-57
2022/08/29 03:03:02;;;;;;;16.55;8.40;;;;;;;12.92;79.92;102147.25;5103457;28;20035;-58
2022/08/29 03:05:31;;;;;;;12.90;7.55;;;;;;;12.85;80.51;102141.69;5101304;28;20031;-57
2022/08/29 03:07:56;;;;;;;14.13;7.72;;;;;;;12.72;80.87;102136.69;5105891;28;20051;-57
2022/08/29 03:10:23;;;;;;;15.93;7.70;;;;;;;12.84;80.77;102144.50;5103944;28;20485;-56
2022/08/29 03:12:49;;;;;;;14.43;8.00;;;;;;;12.75;80.65;102141.72;5101110;28;20035;-57
2022/08/29 03:15:16;;;;;;;16.27;7.90;;;;;;;12.74;80.59;102142.69;5101295;28;20099;-56
2022/08/29 03:17:41;;;;;;;17.40;8.43;;;;;;;12.71;80.87;102140.31;5105739;28;20570;-59
2022/08/29 03:20:08;;;;;;;14.52;8.27;;;;;;;12.67;81.56;102138.94;5105897;28;20063;-56
2022/08/29 03:22:34;;;;;;;14.98;8.68;;;;;;;12.55;82.37;102140.06;5097396;28;20028;-57
2022/08/29 03:25:01;;;;;;;18.45;8.90;;;;;;;12.62;82.66;102135.84;5104927;28;20138;-58
2022/08/29 03:27:27;;;;;;;20.15;9.55;;;;;;;12.60;82.55;102136.00;5104573;28;20096;-57
2022/08/29 03:29:52;;;;;;;18.85;9.90;;;;;;;12.49;83.16;102131.66;5101472;28;20023;-57
2022/08/29 03:32:18;;;;;;;19.15;10.50;;;;;;;12.49;83.69;102125.53;5104990;28;20413;-58
2022/08/29 03:34:43;;;;;;;18.10;9.75;;;;;;;12.53;83.27;102120.75;5095882;28;20068;-55
2022/08/29 03:37:08;;;;;;;19.15;9.13;;;;;;;12.53;83.18;102126.09;5106361;28;20027;-58
2022/08/29 03:39:35;;;;;;;17.88;9.10;;;;;;;12.59;82.51;102125.50;5104669;28;20020;-57
2022/08/29 03:42:00;;;;;;;16.55;8.38;;;;;;;12.63;82.28;102116.25;5099768;28;20117;-57
2022/08/29 03:44:26;;;;;;;16.20;8.23;;;;;;;12.72;81.62;102115.38;5100110;28;20039;-56
2022/08/29 03:46:53;;;;;;;17.00;8.32;;;;;;;12.69;81.22;102105.03;5097791;28;20036;-57
2022/08/29 03:49:19;;;;;;;16.83;8.02;;;;;;;12.67;81.52;102095.53;5097415;28;20104;-57
2022/08/29 03:51:44;;;;;;;15.48;8.48;;;;;;;12.75;81.79;102104.47;5102693;28;20039;-56
2022/08/29 03:54:09;;;;;;;15.40;8.15;;;;;;;12.84;81.72;102096.59;5102355;28;20372;-57
2022/08/29 03:56:35;;;;;;;14.90;8.70;;;;;;;12.75;82.18;102099.16;5104672;28;20056;-59
2022/08/29 03:59:00;;;;;;;15.88;8.43;;;;;;;12.73;82.00;102095.75;5106316;28;20028;-57
2022/08/29 04:01:28;;;;;;;17.80;8.27;;;;;;;12.73;81.93;102089.63;5102277;28;20140;-59
2022/08/29 04:03:55;;;;;;;13.93;7.72;;;;;;;12.82;81.92;102087.91;5099563;28;20031;-58
2022/08/29 04:06:22;;;;;;;17.40;7.80;;;;;;;12.82;81.99;102088.72;5098157;28;20527;-55
2022/08/29 04:08:49;;;;;;;16.25;7.80;;;;;;;12.78;81.98;102087.34;5103849;28;20043;-59
2022/08/29 04:11:16;;;;;;;18.45;7.68;;;;;;;12.76;82.42;102090.16;5082164;28;20785;-57
2022/08/29 04:13:42;;;;;;;14.80;7.90;;;;;;;12.72;82.98;102096.75;5095264;28;20036;-57
2022/08/29 04:16:13;;;;;;;14.80;7.72;;;;;;;12.79;82.23;102099.69;5098890;28;20032;-57
2022/08/29 04:18:39;;;;;;;17.85;8.60;;;;;;;12.76;83.26;102106.13;5096323;28;20040;-56
2022/08/29 04:21:05;;;;;;;19.83;8.73;;;;;;;12.73;83.37;102109.06;5103198;28;20395;-56
2022/08/29 04:23:32;;;;;;;17.02;8.65;;;;;;;12.69;84.05;102113.03;5099381;28;20106;-57
2022/08/29 04:25:57;;;;;;;15.27;7.55;;;;;;;12.83;82.10;102116.19;5104479;28;20036;-58
2022/08/29 04:28:23;;;;;;;15.80;7.70;;;;;;;12.73;83.09;102106.41;5096990;28;20375;-56
2022/08/29 04:30:50;;;;;;;13.68;7.78;;;;;;;12.68;82.39;102114.00;5101279;28;20046;-57
2022/08/29 04:33:16;;;;;;;14.63;7.90;;;;;;;12.58;82.44;102111.34;5103642;28;20020;-56
2022/08/29 04:35:41;;;;;;;15.05;7.78;;;;;;;12.48;82.53;102119.34;5099090;28;20032;-56
2022/08/29 04:38:07;;;;;;;17.63;7.60;;;;;;;12.43;82.95;102121.59;5105649;28;20537;-57
2022/08/29 04:40:33;;;;;;;15.18;8.20;;;;;;;12.31;84.11;102128.06;5097304;28;20020;-59
2022/08/29 04:42:59;;;;;;;18.50;8.80;;;;;;;12.23;84.61;102121.63;5102171;28;20755;-56
2022/08/29 04:45:25;;;;;;;14.30;8.00;;;;;;;12.34;84.21;102122.47;5096646;28;20031;-56
2022/08/29 04:47:51;;;;;;;15.43;8.20;;;;;;;12.38;83.74;102119.38;5101287;28;20039;-57
2022/08/29 04:50:22;;;;;;;17.80;8.82;;;;;;;12.20;84.37;102121.91;5100517;28;20028;-55
2022/08/29 04:52:48;;;;;;;18.42;8.70;;;;;;;12.31;83.99;102128.06;5100493;28;20039;-57
2022/08/29 04:55:15;;;;;;;18.23;9.27;;;;;;;12.26;84.80;102124.97;5099076;28;20489;-58
2022/08/29 04:57:41;;;;;;;17.27;8.43;;;;;;;12.33;83.98;102124.28;5091873;28;20051;-56
2022/08/29 05:00:14;;;;;;;19.40;9.52;;;;;;;12.34;84.34;102127.78;5099954;28;20088;-57
2022/08/29 05:02:41;;;;;;;18.08;8.55;;;;;;;12.36;84.46;102134.66;5092967;28;20378;-56
2022/08/29 05:05:08;;;;;;;16.67;9.65;;;;;;;12.38;84.15;102129.16;5094508;28;20040;-56
2022/08/29 05:07:34;;;;;;;18.33;8.50;;;;;;;12.35;84.38;102124.97;5098578;28;20043;-57
2022/08/29 05:10:04;;;;;;;16.40;7.65;;;;;;;12.19;84.45;102120.22;5104375;28;20028;-57
2022/08/29 05:12:30;;;;;;;15.77;8.38;;;;;;;12.15;85.16;102113.53;5101173;28;20050;-58
2022/08/29 05:14:56;;;;;;;12.63;7.30;;;;;;;12.16;84.82;102117.84;5104034;28;20028;-57
2022/08/29 05:17:22;;;;;;;14.05;7.28;;;;;;;12.26;85.07;102123.16;5097203;28;20050;-57
2022/08/29 05:19:48;;;;;;;16.38;7.32;;;;;;;12.34;84.99;102138.44;5103865;28;20063;-56
2022/08/29 05:22:14;;;;;;;13.45;7.80;;;;;;;12.32;85.44;102130.59;5101466;28;20073;-55
2022/08/29 05:24:39;;;;;;;12.18;7.18;;;;;;;12.37;84.67;102138.13;5099106;28;20377;-59
2022/08/29 05:27:13;;;;;;;16.65;6.93;;;;;;;12.45;84.93;102146.25;5096607;28;20111;-57
2022/08/29 05:29:41;;;;;;;14.52;7.05;;;;;;;12.47;84.72;102149.59;5094763;28;20421;-57
2022/08/29 05:32:09;;;;;;;14.13;7.10;;;;;;;12.50;84.77;102156.47;5105282;27;20481;-58
2022/08/29 05:34:35;;;;;;;12.30;6.95;;;;;;;12.52;84.53;102149.19;5103083;28;20031;-56
2022/08/29 05:37:07;;;;;;;12.68;7.05;;;;;;;12.55;84.40;102151.56;5103660;28;20100;-56
2022/08/29 05:39:34;;;;;;;14.88;7.60;;;;;;;12.62;84.02;102158.00;5097263;28;20092;-57
2022/08/29 05:42:00;;;;;;;16.13;7.68;;;;;;;12.61;83.93;102155.47;5103824;28;20063;-58
2022/08/29 05:44:27;;;;;;;11.90;7.53;;;;;;;12.56;84.55;102158.56;5104129;28;20028;-58
2022/08/29 05:46:53;;;;;;;16.05;6.80;;;;;;;12.49;84.33;102158.28;5098221;28;20057;-57
2022/08/29 05:49:19;;;;;;;11.80;6.50;;;;;;;12.36;83.72;102163.06;5101956;28;20047;-56
2022/08/29 05:51:44;;;;;;;13.57;6.40;;;;;;;12.37;84.61;102162.06;5101850;28;20034;-58
2022/08/29 05:54:09;;;;;;;14.52;6.30;;;;;;;12.53;84.25;102168.66;5103574;28;20028;-57
2022/08/29 05:56:35;;;;;;;13.90;6.50;;;;;;;12.65;84.90;102167.50;5098695;28;20664;-57
2022/08/29 05:59:00;;;;;;;14.55;6.30;;;;;;;12.66;84.17;102158.53;5100050;28;20049;-57
2022/08/29 06:01:28;;;;;;;14.30;6.78;;;;;;;12.68;84.39;102156.56;5093978;28;20028;-57
2022/08/29 06:03:54;;;;;;;13.68;6.75;;;;;;;12.79;83.64;102160.91;5100250;28;20031;-59
2022/08/29 06:06:22;;;;;;;8.90;5.95;;;;;;;12.84;84.43;102168.47;5094804;28;20036;-58
2022/08/29 06:08:48;;;;;;;12.60;6.82;;;;;;;12.88;84.73;102173.34;5094494;28;20032;-57
2022/08/29 06:11:19;;;;;;;11.68;6.75;;;;;;;12.83;84.68;102164.13;5093841;28;20088;-56
2022/08/29 06:13:45;;;;;;;13.75;7.25;;;;;;;12.92;84.36;102173.88;5097814;28;20089;-58
2022/08/29 06:16:12;;;;;;;14.52;6.97;;;;;;;12.91;84.37;102164.22;5095644;28;20027;-59
2022/08/29 06:18:38;;;;;;;12.15;6.88;;;;;;;13.05;84.34;102171.78;5098330;28;20059;-58
2022/08/29 06:21:04;;;;;;;15.68;7.18;;;;;;;13.09;84.26;102174.97;5101701;28;20450;-58
2022/08/29 06:23:30;;;;;;;12.95;7.00;;;;;;;13.15;84.59;102182.38;5094529;28;20027;-57
2022/08/29 06:25:58;;;;;;;19.27;6.38;;;;;;;13.21;84.72;102180.94;5094833;28;20028;-57
2022/08/29 06:28:31;;;;;;;14.00;7.05;;;;;;;13.28;84.14;102181.22;5101996;28;20276;-57
2022/08/29 06:31:03;;;;;;;;;;;;;;;13.40;82.88;102188.03;5097509;28;20038;-57
2022/08/29 06:33:28;;;;;;;14.68;7.22;;;;;;;13.37;83.98;102182.16;5082955;28;19983;-58
2022/08/29 06:35:54;;;;;;;12.10;6.90;;;;;;;13.40;83.83;102187.19;5107036;28;20047;-56
2022/08/29 06:38:19;;;;;;;15.25;6.47;;;;;;;13.43;83.59;102190.38;5107594;28;20050;-55
2022/08/29 06:40:44;;;;;;;13.98;6.97;;;;;;;13.42;82.71;102175.41;5098003;28;20036;-58
2022/08/29 06:43:10;;;;;;;11.75;6.93;;;;;;;13.45;82.43;102190.25;5101426;27;20032;-56
2022/08/29 06:45:40;;;;;;;14.13;7.35;;;;;;;13.39;81.93;102186.34;5101275;28;20039;-57
2022/08/29 06:48:05;;;;;;;12.75;7.82;;;;;;;13.56;82.63;102192.75;5098609;28;20044;-57
2022/08/29 06:50:30;;;;;;;16.63;7.20;;;;;;;13.63;81.35;102197.50;5106811;28;20498;-57
2022/08/29 06:52:56;;;;;;;16.08;7.20;;;;;;;13.75;82.47;102206.97;5107441;27;20043;-56
2022/08/29 06:55:21;;;;;;;13.13;6.93;;;;;;;13.87;80.20;102204.09;5097468;28;20393;-57
2022/08/29 06:57:46;;;;;;;12.55;6.82;;;;;;;13.93;78.80;102192.81;5105277;28;20027;-58
2022/08/29 07:00:14;;;;;;;11.85;7.20;;;;;;;14.02;82.95;102191.09;5097594;28;20031;-58
2022/08/29 07:02:39;;;;;;;16.73;7.38;;;;;;;14.07;82.73;102194.97;5101635;28;20757;-58
2022/08/29 07:05:06;;;;;;;13.98;7.57;;;;;;;14.17;80.92;102196.72;5103123;28;20043;-58
2022/08/29 07:07:31;;;;;;;12.68;6.90;;;;;;;14.23;79.80;102193.47;5093917;28;20037;-60
2022/08/29 07:09:57;;;;;;;12.40;7.20;;;;;;;14.34;77.54;102200.38;5090901;28;20031;-60
2022/08/29 07:12:22;;;;;;;14.18;7.03;;;;;;;14.40;75.90;102197.09;5097660;28;20055;-57
2022/08/29 07:14:48;;;;;;;15.13;7.50;;;;;;;14.56;76.11;102192.91;5102658;28;20619;-60
2022/08/29 07:17:13;;;;;;;15.93;7.05;;;;;;;14.74;74.45;102190.19;5102429;28;20028;-59
2022/08/29 07:19:39;;;;;;;17.13;6.97;;;;;;;14.90;73.77;102195.69;5105656;27;20043;-58
2022/08/29 07:22:06;;;;;;;14.48;6.82;;;;;;;15.05;71.83;102195.94;5098498;28;20669;-58
2022/08/29 07:24:32;;;;;;;14.52;7.07;;;;;;;15.17;71.67;102187.66;5098492;28;20119;-58
2022/08/29 07:26:58;;;;;;;14.95;7.55;;;;;;;15.30;70.87;102192.56;5098657;28;20114;-60
2022/08/29 07:29:23;;;;;;;14.77;6.03;;;;;;;15.43;68.89;102194.78;5099721;27;20046;-60
2022/08/29 07:31:49;;;;;;;10.27;5.70;;;;;;;15.59;70.27;102199.34;5106433;28;20533;-58
2022/08/29 07:34:15;;;;;;;19.27;7.25;;;;;;;15.72;69.67;102182.84;5106110;28;20040;-58
2022/08/29 07:36:40;;;;;;;13.32;6.05;;;;;;;15.81;68.94;102186.38;5102324;28;20448;-59
2022/08/29 07:39:09;;;;;;;15.38;6.85;;;;;;;15.85;68.31;102187.75;5104058;27;20106;-57
2022/08/29 07:41:36;;;;;;;12.48;6.68;;;;;;;15.88;68.07;102166.00;5089844;28;20142;-58
2022/08/29 07:44:02;;;;;;;12.10;6.30;;;;;;;15.95;68.09;102171.56;5095464;28;20508;-58
2022/08/29 07:46:28;;;;;;;13.90;6.05;;;;;;;15.98;64.99;102174.75;5097052;28;20035;-58
2022/08/29 07:48:53;;;;;;;16.63;5.72;;;;;;;15.98;64.67;102172.09;5104383;27;20047;-60
2022/08/29 07:51:21;;;;;;;11.55;5.90;;;;;;;16.02;66.46;102177.13;5098487;28;20027;-57
2022/08/29 07:53:47;;;;;;;12.65;5.82;;;;;;;16.08;65.83;102182.63;5104938;28;20032;-60
2022/08/29 07:56:37;;;;;;;11.40;5.20;;;;;;;16.13;66.78;102187.47;5104934;28;20038;-60
2022/08/29 07:59:03;;;;;;;6.57;4.20;;;;;;;16.20;64.06;102182.31;5096220;27;20476;-59
2022/08/29 08:01:28;;;;;;;10.55;4.53;;;;;;;16.23;62.46;102190.84;5098486;28;20038;-60
2022/08/29 08:03:54;;;;;;;10.57;4.50;;;;;;;16.28;61.57;102187.66;5099940;28;20480;-57
2022/08/29 08:06:22;;;;;;;9.63;4.25;;;;;;;16.29;62.43;102192.03;5099024;28;20036;-58
2022/08/29 08:08:48;;;;;;;8.75;4.20;;;;;;;16.34;61.69;102186.16;5094172;28;20052;-59
2022/08/29 08:11:14;;;;;;;13.13;4.90;;;;;;;16.40;64.36;102188.19;5099641;28;20051;-58
2022/08/29 08:13:39;;;;;;;10.90;4.97;;;;;;;16.43;62.99;102187.00;5100588;28;20096;-58
2022/08/29 08:16:08;;;;;;;10.63;5.38;;;;;;;16.41;62.95;102187.16;5104565;28;20403;-60
2022/08/29 08:18:35;;;;;;;14.18;4.80;;;;;;;16.46;63.04;102182.16;5100662;27;20042;-58
2022/08/29 08:21:01;;;;;;;11.05;5.22;;;;;;;16.48;63.31;102180.13;5102754;28;20039;-59
2022/08/29 08:23:26;;;;;;;9.40;4.30;;;;;;;16.54;61.11;102179.47;5078210;28;20050;-58
2022/08/29 08:25:52;;;;;;;7.90;4.38;;;;;;;16.58;60.37;102176.47;5105315;28;20043;-57
2022/08/29 08:28:17;;;;;;;10.35;4.40;;;;;;;16.61;61.22;102174.28;5103966;27;20488;-59
2022/08/29 08:30:43;;;;;;;11.68;4.55;;;;;;;16.64;61.15;102178.47;5100531;28;20930;-59
2022/08/29 08:33:09;;;;;;;10.07;4.30;;;;;;;16.72;62.81;102189.16;5091486;28;20070;-58
2022/08/29 08:35:36;;;;;;;8.98;4.43;;;;;;;16.75;60.21;102188.81;5103264;28;20490;-57
2022/08/29 08:38:01;;;;;;;9.30;4.13;;;;;;;16.74;60.23;102186.31;5105328;27;20024;-59
2022/08/29 08:40:28;;;;;;;9.20;4.03;;;;;;;16.68;61.53;102183.31;5099625;27;20070;-58
2022/08/29 08:42:59;;;;;;;13.13;4.53;;;;;;;16.68;62.96;102177.94;5105260;28;20061;-58
2022/08/29 08:45:32;;;;;;;10.68;4.80;;;;;;;16.72;63.19;102183.78;5104089;28;20028;-58
2022/08/29 08:48:06;;;;;;;8.57;4.30;;;;;;;16.74;61.27;102175.59;5100447;27;20143;-57
2022/08/29 08:50:55;;;;;;;10.77;4.28;;;;;;;16.83;61.73;102169.22;5074930;28;20079;-57
2022/08/29 08:53:32;;;;;;;8.48;3.88;;;;;;;16.79;59.17;102155.31;5102837;28;20027;-57
2022/08/29 08:56:00;;;;;;;12.18;4.93;;;;;;;16.95;62.79;102177.72;5096792;28;20032;-56
2022/08/29 08:58:47;;;;;;;9.27;4.25;;;;;;;16.99;62.04;102184.44;5107467;27;20023;-57
2022/08/29 09:01:42;;;;;;;10.27;4.53;;;;;;;17.04;59.41;102176.75;5104419;27;20071;-57
2022/08/29 09:04:25;;;;;;;7.75;4.28;;;;;;;17.04;59.00;102182.09;5103123;28;20027;-59
2022/08/29 09:07:15;;;;;;;10.43;4.55;;;;;;;17.06;59.09;102185.44;5093126;28;20388;-60
2022/08/29 09:09:46;;;;;;;10.77;4.68;;;;;;;17.09;58.23;102181.59;5101043;27;20027;-57
2022/08/29 09:13:00;;;;;;;10.25;4.88;;;;;;;17.18;58.08;102188.56;5086263;28;20092;-56
2022/08/29 09:15:38;;;;;;;10.07;4.50;;;;;;;17.23;58.00;102185.41;5044966;28;20048;-57
2022/08/29 09:18:06;;;;;;;7.47;4.30;;;;;;;17.26;57.87;102186.91;5099420;28;20106;-56
2022/08/29 09:20:37;;;;;;;13.05;4.65;;;;;;;17.29;57.85;102192.75;5103278;28;20057;-57
2022/08/29 09:23:06;;;;;;;11.40;4.85;;;;;;;17.29;59.86;102190.06;5098640;28;20020;-59
2022/08/29 09:25:34;;;;;;;11.77;4.82;;;;;;;17.32;57.67;102195.06;5102003;28;20067;-57
2022/08/29 09:28:01;;;;;;;10.70;4.90;;;;;;;17.34;57.87;102195.75;5102737;27;20093;-58
2022/08/29 09:30:30;;;;;;;9.35;4.35;;;;;;;17.32;55.73;102192.38;5101454;28;20648;-56
2022/08/29 09:33:02;;;;;;;9.07;4.28;;;;;;;17.36;56.53;102200.09;5104552;28;20024;-59
2022/08/29 09:35:44;;;;;;;10.68;4.63;;;;;;;17.34;57.60;102203.78;5100503;28;20119;-57
2022/08/29 09:38:23;;;;;;;8.73;4.43;;;;;;;17.34;57.38;102198.44;5092937;28;20036;-59
2022/08/29 09:40:54;;;;;;;9.43;4.43;;;;;;;17.31;56.47;102190.72;5100222;28;20035;-57
2022/08/29 09:43:42;;;;;;;10.27;4.60;;;;;;;17.39;58.09;102199.72;5095341;28;20119;-57
2022/08/29 09:46:16;;;;;;;12.85;4.65;;;;;;;17.41;57.15;102197.72;5100946;28;20528;-57
2022/08/29 09:48:45;;;;;;;9.82;4.93;;;;;;;17.38;55.53;102192.69;5101439;28;20040;-59
2022/08/29 09:51:23;;;;;;;10.45;4.78;;;;;;;17.31;56.03;102193.41;5099557;28;20173;-59
2022/08/29 09:53:49;;;;;;;13.38;5.10;;;;;;;17.30;56.11;102186.38;5101122;28;20063;-56
2022/08/29 09:56:22;;;;;;;13.20;4.95;;;;;;;17.32;56.97;102184.34;5100997;28;20024;-58
2022/08/29 09:59:03;;;;;;;9.45;4.63;;;;;;;17.52;57.92;102194.63;5106394;28;20559;-57
2022/08/29 10:01:31;;;;;;;8.40;4.25;;;;;;;17.75;57.52;102188.50;5103400;28;20034;-57
2022/08/29 10:04:05;;;;;;;10.45;4.82;;;;;;;17.79;56.69;102188.97;5102721;28;20106;-57
2022/08/29 10:06:38;;;;;;;9.38;5.07;;;;;;;17.67;56.09;102175.13;5089051;28;20337;-57
2022/08/29 10:09:39;;;;;;;11.40;5.03;;;;;;;17.66;57.11;102194.94;5103063;28;20040;-57
2022/08/29 10:12:15;;;;;;;13.27;5.13;;;;;;;17.58;58.16;102193.94;5023267;28;20045;-56
2022/08/29 10:14:55;;;;;;;10.80;4.60;;;;;;;17.57;57.00;102196.81;5095883;28;20524;-58
2022/08/29 10:20:19;;;;;;;11.52;4.95;;;;;;;17.86;56.74;102190.78;5101204;28;20096;-56
2022/08/29 10:23:01;;;;;;;10.02;5.03;;;;;;;17.88;56.58;102193.28;5107641;28;20049;-57
2022/08/29 10:25:34;;;;;;;12.00;4.55;;;;;;;17.83;56.46;102193.84;5102576;28;20060;-57
2022/08/29 10:28:24;;;;;;;10.15;4.55;;;;;;;17.83;56.24;102196.50;5099099;28;20039;-57
2022/08/29 10:30:59;;;;;;;8.57;4.85;;;;;;;18.06;56.92;102179.59;5103100;28;20839;-57
2022/08/29 10:33:53;;;;;;;12.20;5.20;;;;;;;18.17;55.05;102178.38;5101671;28;20035;-57
2022/08/29 10:36:32;;;;;;;9.25;5.07;;;;;;;18.36;53.88;102173.53;5101719;28;20442;-59
2022/08/29 10:39:16;;;;;;;9.30;4.88;;;;;;;18.52;54.58;102170.69;5107334;27;20492;-59
2022/08/29 10:41:59;;;;;;;10.48;5.22;;;;;;;18.75;54.58;102177.03;5103871;28;20054;-58
2022/08/29 10:44:49;;;;;;;10.40;4.82;;;;;;;18.91;53.85;102182.19;5094459;28;20120;-58
2022/08/29 10:47:34;;;;;;;13.52;5.63;;;;;;;19.05;53.33;102177.06;5094189;28;20043;-60
2022/08/29 10:50:13;;;;;;;13.20;5.30;;;;;;;19.16;53.00;102176.59;5093404;28;20142;-57
2022/08/29 10:52:48;;;;;;;12.50;5.25;;;;;;;19.18;53.32;102161.09;5104627;28;20419;-61
2022/08/29 10:55:38;;;;;;;10.82;5.18;;;;;;;19.35;51.97;102169.81;5105227;28;20307;-59
2022/08/29 10:58:28;;;;;;;10.85;4.95;;;;;;;19.38;52.27;102170.47;5089490;28;20075;-60
2022/08/29 11:01:01;;;;;;;11.65;5.05;;;;;;;19.13;51.43;102174.28;5096528;28;20055;-61
2022/08/29 11:03:40;;;;;;;;;;;;;;;19.21;51.68;102160.72;5103497;28;20051;-60
2022/08/29 11:06:12;;;;;;;8.77;4.72;;;;;;;19.20;52.32;102152.88;5103706;28;20423;-61
2022/08/29 11:09:11;;;;;;;9.93;4.90;;;;;;;19.25;53.21;102149.59;5106377;27;20055;-58
2022/08/29 11:11:43;;;;;;;12.23;5.68;;;;;;;19.23;51.56;102147.09;5076266;28;20488;-59
2022/08/29 11:14:26;;;;;;;11.88;5.13;;;;;;;19.17;51.60;102143.31;5098415;28;20060;-60
2022/08/29 11:16:54;;;;;;;11.35;5.45;;;;;;;19.31;51.82;102154.22;5099792;28;20035;-58
2022/08/29 11:19:35;;;;;;;8.48;5.28;;;;;;;19.47;51.79;102143.25;5098678;27;20077;-57
2022/08/29 11:22:18;;;;;;;9.55;4.57;;;;;;;19.65;50.66;102138.47;5099846;28;20400;-60
2022/08/29 11:24:49;;;;;;;8.43;4.20;;;;;;;19.75;50.56;102134.44;5097876;28;20110;-58
2022/08/29 11:27:34;;;;;;;10.13;4.63;;;;;;;19.89;49.85;102134.59;5099179;28;20513;-61
2022/08/29 11:30:11;;;;;;;10.80;4.88;;;;;;;19.93;50.61;102125.09;5096977;28;20020;-57
2022/08/29 11:33:01;;;;;;;8.50;4.32;;;;;;;20.16;51.42;102124.06;5100310;28;20036;-61
2022/08/29 11:35:48;;;;;;;9.52;4.43;;;;;;;20.23;49.44;102124.97;5103048;28;20480;-63